Time;durP1;ratioP1;P1;durP2;ratioP2;P2;SDS_P1;SDS_P2;PMS_P1;PMS_P2;Temp;Humidity;BMP_temperature;BMP_pressure;BME280_temperature;BME280_humidity;BME280_pressure;Samples;Min_cycle;Max_cycle;Signal;HPM_P1;HPM_P2
2021/03/09 00:01:40;;;;;;;15.17;12.43;;;;;;;;;;4724697;30;20619;-79
2021/03/09 00:04:11;;;;;;;14.87;13.27;;;;;;;;;;4720088;30;20235;-79
2021/03/09 00:06:42;;;;;;;15.30;12.93;;;;;;;;;;4733533;30;20240;-80
2021/03/09 00:09:50;;;;;;;14.00;12.50;;;;;;;;;;4737093;30;20222;-80
2021/03/09 00:12:27;;;;;;;15.10;12.63;;;;;;;;;;4731399;30;20240;-79
2021/03/09 00:15:02;;;;;;;14.93;12.63;;;;;;;;;;4747499;30;20244;-80
2021/03/09 00:17:34;;;;;;;14.57;12.67;;;;;;;;;;4725157;30;20246;-79
2021/03/09 00:20:05;;;;;;;18.80;12.90;;;;;;;;;;4746007;30;20747;-79
2021/03/09 00:22:41;;;;;;;14.03;12.00;;;;;;;;;;4723760;30;20241;-79
2021/03/09 00:25:16;;;;;;;15.90;12.13;;;;;;;;;;4719033;30;20240;-79
2021/03/09 00:27:52;;;;;;;15.10;12.83;;;;;;;;;;4721460;30;20710;-80
2021/03/09 00:30:49;;;;;;;13.47;12.00;;;;;;;;;;4749327;30;20692;-80
2021/03/09 00:33:21;;;;;;;16.17;13.07;;;;;;;;;;4740618;30;21164;-79
2021/03/09 00:35:52;;;;;;;16.57;12.63;;;;;;;;;;4753448;30;20787;-80
2021/03/09 00:38:29;;;;;;;15.57;12.43;;;;;;;;;;4748068;30;20237;-79
2021/03/09 00:41:02;;;;;;;13.10;11.70;;;;;;;;;;4738036;30;20220;-79
2021/03/09 00:46:28;;;;;;;13.87;11.93;;;;;;;;;;4751357;30;20837;-79
2021/03/09 00:49:06;;;;;;;13.70;11.17;;;;;;;;;;4710243;30;20246;-79
2021/03/09 00:51:44;;;;;;;16.40;11.80;;;;;;;;;;4750890;30;20240;-79
2021/03/09 00:54:17;;;;;;;12.30;11.00;;;;;;;;;;4735535;30;20238;-79
2021/03/09 00:56:49;;;;;;;13.93;11.47;;;;;;;;;;4751128;30;20316;-79
2021/03/09 00:59:22;;;;;;;15.50;11.30;;;;;;;;;;4738791;30;20221;-79
2021/03/09 01:01:52;;;;;;;12.23;10.93;;;;;;;;;;4733578;30;20575;-78
2021/03/09 01:04:32;;;;;;;13.17;11.00;;;;;;;;;;4744465;30;20615;-79
2021/03/09 01:07:05;;;;;;;13.00;11.10;;;;;;;;;;4753883;30;20210;-79
2021/03/09 01:09:56;;;;;;;12.13;10.63;;;;;;;;;;4723486;30;20240;-79
2021/03/09 01:12:29;;;;;;;12.70;11.30;;;;;;;;;;4737584;30;20221;-79
2021/03/09 01:15:25;;;;;;;11.20;10.10;;;;;;;;;;4729668;30;20601;-79
2021/03/09 01:18:01;;;;;;;14.23;10.80;;;;;;;;;;4730907;30;20614;-80
2021/03/09 01:23:40;;;;;;;14.60;11.20;;;;;;;;;;4728352;30;20249;-78
2021/03/09 01:26:11;;;;;;;12.40;11.00;;;;;;;;;;4733909;30;20249;-79
2021/03/09 01:28:46;;;;;;;12.00;10.70;;;;;;;;;;4749968;30;20244;-79
2021/03/09 01:31:18;;;;;;;12.23;10.87;;;;;;;;;;4752041;30;20240;-79
2021/03/09 01:33:49;;;;;;;14.43;10.47;;;;;;;;;;4723390;30;20242;-79
2021/03/09 01:36:20;;;;;;;14.37;11.27;;;;;;;;;;4734723;30;20244;-78
2021/03/09 01:38:50;;;;;;;12.87;10.80;;;;;;;;;;4748528;30;20252;-78
2021/03/09 01:41:25;;;;;;;13.07;9.90;;;;;;;;;;4742916;30;20728;-79
2021/03/09 01:43:58;;;;;;;11.83;10.37;;;;;;;;;;4749292;30;20744;-79
2021/03/09 01:46:33;;;;;;;13.30;11.03;;;;;;;;;;4740623;30;20272;-79
2021/03/09 01:49:07;;;;;;;12.27;10.97;;;;;;;;;;4754951;30;20640;-79
2021/03/09 01:51:42;;;;;;;12.23;10.30;;;;;;;;;;4756136;30;20216;-79
2021/03/09 01:54:13;;;;;;;12.40;10.63;;;;;;;;;;4757671;30;20191;-82
2021/03/09 01:56:47;;;;;;;12.57;10.60;;;;;;;;;;4761449;30;20233;-81
2021/03/09 01:59:18;;;;;;;12.30;10.57;;;;;;;;;;4743413;30;20213;-78
2021/03/09 02:01:54;;;;;;;12.80;10.27;;;;;;;;;;4722261;30;20264;-78
2021/03/09 02:04:27;;;;;;;12.40;11.00;;;;;;;;;;4720514;30;20237;-79
2021/03/09 02:06:59;;;;;;;13.43;10.60;;;;;;;;;;4733172;30;20236;-80
2021/03/09 02:09:37;;;;;;;13.43;10.33;;;;;;;;;;4721942;30;20615;-79
2021/03/09 02:15:14;;;;;;;12.97;10.40;;;;;;;;;;4738869;30;20724;-79
2021/03/09 02:17:49;;;;;;;16.80;11.17;;;;;;;;;;4745836;30;20238;-79
2021/03/09 02:24:46;;;;;;;13.00;10.33;;;;;;;;;;4759015;30;20237;-78
2021/03/09 02:27:29;;;;;;;12.97;10.70;;;;;;;;;;4703733;30;20283;-79
2021/03/09 02:30:25;;;;;;;12.83;11.00;;;;;;;;;;4763406;29;20239;-80
2021/03/09 02:33:01;;;;;;;11.57;10.33;;;;;;;;;;4741142;30;20727;-78
2021/03/09 02:35:50;;;;;;;16.00;11.67;;;;;;;;;;4731187;30;20247;-78
2021/03/09 02:38:23;;;;;;;14.67;10.37;;;;;;;;;;4731445;30;20745;-79
2021/03/09 02:40:55;;;;;;;14.33;10.70;;;;;;;;;;4739479;30;20236;-79
2021/03/09 02:43:30;;;;;;;13.30;10.17;;;;;;;;;;4745039;30;20242;-79
2021/03/09 02:46:05;;;;;;;14.40;10.27;;;;;;;;;;4736230;30;20246;-79
2021/03/09 02:48:40;;;;;;;13.63;10.53;;;;;;;;;;4738833;30;20236;-78
2021/03/09 02:51:42;;;;;;;13.40;11.20;;;;;;;;;;4740073;30;20243;-79
2021/03/09 02:54:15;;;;;;;13.67;10.90;;;;;;;;;;4737631;30;20241;-79
2021/03/09 02:56:58;;;;;;;13.90;11.00;;;;;;;;;;4738922;30;20235;-79
2021/03/09 03:02:58;;;;;;;14.50;11.10;;;;;;;;;;4735819;30;20599;-79
2021/03/09 03:05:41;;;;;;;14.70;10.40;;;;;;;;;;4744986;30;20240;-79
2021/03/09 03:08:16;;;;;;;15.07;10.93;;;;;;;;;;4735405;30;20239;-79
2021/03/09 03:10:49;;;;;;;12.60;10.97;;;;;;;;;;4754258;30;20248;-78
2021/03/09 03:13:20;;;;;;;14.23;11.50;;;;;;;;;;4736612;30;20609;-79
2021/03/09 03:15:54;;;;;;;13.83;11.03;;;;;;;;;;4757604;30;20234;-79
2021/03/09 03:18:31;;;;;;;12.70;10.80;;;;;;;;;;4742218;30;20256;-79
2021/03/09 03:21:06;;;;;;;15.27;11.57;;;;;;;;;;4741772;30;20240;-80
2021/03/09 03:23:37;;;;;;;16.23;10.70;;;;;;;;;;4743156;30;20247;-78
2021/03/09 03:26:12;;;;;;;13.50;10.10;;;;;;;;;;4753707;30;20245;-79
2021/03/09 03:28:54;;;;;;;14.07;11.30;;;;;;;;;;4749425;30;20236;-79
2021/03/09 03:31:26;;;;;;;14.23;10.50;;;;;;;;;;4725557;30;20603;-79
2021/03/09 03:33:59;;;;;;;13.40;10.73;;;;;;;;;;4739645;30;20239;-79
2021/03/09 03:36:29;;;;;;;12.53;10.57;;;;;;;;;;4744861;30;20616;-78
2021/03/09 03:39:07;;;;;;;12.03;10.30;;;;;;;;;;4748785;30;20325;-79
2021/03/09 03:41:39;;;;;;;13.10;10.53;;;;;;;;;;4754407;30;20631;-79
2021/03/09 03:44:10;;;;;;;12.90;10.13;;;;;;;;;;4755837;30;20218;-79
2021/03/09 03:46:42;;;;;;;11.57;9.67;;;;;;;;;;4729002;30;20243;-79
2021/03/09 03:49:15;;;;;;;12.73;10.53;;;;;;;;;;4768666;30;20242;-80
2021/03/09 03:51:47;;;;;;;13.00;10.00;;;;;;;;;;4773666;30;20209;-80
2021/03/09 03:54:23;;;;;;;12.47;10.67;;;;;;;;;;4756880;30;20231;-80
2021/03/09 03:56:56;;;;;;;11.00;9.90;;;;;;;;;;4758702;30;20246;-79
2021/03/09 03:59:28;;;;;;;13.40;10.50;;;;;;;;;;4747025;30;20240;-79
2021/03/09 04:01:57;;;;;;;14.07;10.00;;;;;;;;;;4766059;30;20761;-79
2021/03/09 04:04:28;;;;;;;12.00;9.77;;;;;;;;;;4744769;30;20243;-79
2021/03/09 04:06:58;;;;;;;13.90;9.57;;;;;;;;;;4743226;30;20235;-79
2021/03/09 04:09:30;;;;;;;14.80;11.03;;;;;;;;;;4745423;30;20244;-80
2021/03/09 04:12:05;;;;;;;12.13;9.87;;;;;;;;;;4749962;30;20231;-79
2021/03/09 04:14:37;;;;;;;13.37;10.87;;;;;;;;;;4754287;30;20241;-80
2021/03/09 04:17:15;;;;;;;11.90;9.70;;;;;;;;;;4739962;30;20243;-78
2021/03/09 04:19:47;;;;;;;12.83;10.13;;;;;;;;;;4751412;30;20600;-78
2021/03/09 04:22:23;;;;;;;12.93;9.93;;;;;;;;;;4724327;30;20240;-80
2021/03/09 04:24:59;;;;;;;12.20;9.83;;;;;;;;;;4737679;30;20271;-81
2021/03/09 04:27:31;;;;;;;11.23;8.90;;;;;;;;;;4733171;30;20231;-79
2021/03/09 04:30:04;;;;;;;12.50;10.33;;;;;;;;;;4730996;30;20248;-79
2021/03/09 04:33:02;;;;;;;12.17;9.80;;;;;;;;;;4735091;30;20231;-78
2021/03/09 04:35:35;;;;;;;13.33;9.90;;;;;;;;;;4738120;30;20242;-78
2021/03/09 04:38:05;;;;;;;12.27;10.33;;;;;;;;;;4732621;30;20713;-79
2021/03/09 04:40:35;;;;;;;12.63;10.40;;;;;;;;;;4747655;30;20219;-79
2021/03/09 04:43:06;;;;;;;11.20;9.40;;;;;;;;;;4730525;30;20230;-78
2021/03/09 04:45:38;;;;;;;13.43;9.97;;;;;;;;;;4750935;30;20220;-82
2021/03/09 04:48:09;;;;;;;13.40;10.20;;;;;;;;;;4772324;29;20229;-80
2021/03/09 04:51:01;;;;;;;12.47;10.07;;;;;;;;;;4761782;30;20245;-79
2021/03/09 04:53:31;;;;;;;11.70;9.43;;;;;;;;;;4734017;30;20234;-78
2021/03/09 04:56:01;;;;;;;12.40;10.03;;;;;;;;;;4734075;30;20243;-78
2021/03/09 04:58:31;;;;;;;12.90;10.40;;;;;;;;;;4748367;30;20245;-78
2021/03/09 05:01:01;;;;;;;13.23;9.73;;;;;;;;;;4743609;30;20242;-78
2021/03/09 05:03:43;;;;;;;13.83;10.20;;;;;;;;;;4741217;30;20236;-79
2021/03/09 05:06:15;;;;;;;11.93;10.20;;;;;;;;;;4726720;30;20744;-78
2021/03/09 05:08:46;;;;;;;13.77;10.90;;;;;;;;;;4746480;30;20615;-78
2021/03/09 05:11:16;;;;;;;13.17;10.67;;;;;;;;;;4728484;30;20266;-78
2021/03/09 05:13:46;;;;;;;11.83;9.77;;;;;;;;;;4737014;30;20235;-79
2021/03/09 05:16:16;;;;;;;13.10;10.00;;;;;;;;;;4725119;30;20243;-79
2021/03/09 05:19:11;;;;;;;13.23;10.70;;;;;;;;;;4715787;30;20245;-78
2021/03/09 05:21:42;;;;;;;13.63;10.50;;;;;;;;;;4748019;30;20234;-78
2021/03/09 05:24:14;;;;;;;11.40;9.93;;;;;;;;;;4734149;30;20230;-79
2021/03/09 05:26:45;;;;;;;13.53;10.00;;;;;;;;;;4750276;30;20646;-79
2021/03/09 05:29:16;;;;;;;13.07;10.37;;;;;;;;;;4749218;30;20261;-79
2021/03/09 05:31:45;;;;;;;14.07;10.77;;;;;;;;;;4725509;30;20721;-79
2021/03/09 05:34:54;;;;;;;13.37;10.23;;;;;;;;;;4736217;30;20703;-78
2021/03/09 05:37:51;;;;;;;13.50;10.77;;;;;;;;;;4735369;30;20246;-78
2021/03/09 05:40:23;;;;;;;13.90;10.77;;;;;;;;;;4736824;30;20238;-79
2021/03/09 05:42:53;;;;;;;13.37;11.60;;;;;;;;;;4726498;30;20317;-79
2021/03/09 05:45:24;;;;;;;15.30;11.03;;;;;;;;;;4736834;30;20238;-78
2021/03/09 05:47:54;;;;;;;14.20;10.93;;;;;;;;;;4732131;30;20226;-78
2021/03/09 05:50:24;;;;;;;16.27;10.97;;;;;;;;;;4735812;30;20246;-78
2021/03/09 05:52:54;;;;;;;14.13;10.67;;;;;;;;;;4750557;30;20227;-79
2021/03/09 05:55:24;;;;;;;10.90;9.80;;;;;;;;;;4730598;30;20235;-78
2021/03/09 05:57:57;;;;;;;14.23;10.87;;;;;;;;;;4736053;30;20632;-79
2021/03/09 06:00:35;;;;;;;14.23;10.97;;;;;;;;;;4747922;30;20239;-79
2021/03/09 06:03:05;;;;;;;14.37;11.60;;;;;;;;;;4749083;30;20246;-78
2021/03/09 06:05:35;;;;;;;15.23;10.83;;;;;;;;;;4751459;30;20223;-79
2021/03/09 06:08:15;;;;;;;13.87;10.50;;;;;;;;;;4751391;30;20226;-79
2021/03/09 06:10:45;;;;;;;16.07;10.93;;;;;;;;;;4749938;30;20231;-79
2021/03/09 06:13:34;;;;;;;17.73;10.67;;;;;;;;;;4764309;30;20611;-78
2021/03/09 06:18:58;;;;;;;15.00;10.87;;;;;;;;;;4760514;30;20235;-80
2021/03/09 06:21:29;;;;;;;15.90;10.80;;;;;;;;;;4736547;30;20207;-78
2021/03/09 06:24:18;;;;;;;14.03;11.03;;;;;;;;;;4733285;30;20413;-79
2021/03/09 06:26:50;;;;;;;16.53;11.07;;;;;;;;;;4763138;30;20237;-79
2021/03/09 06:29:21;;;;;;;14.43;11.17;;;;;;;;;;4719581;29;20230;-79
2021/03/09 06:32:02;;;;;;;16.83;11.37;;;;;;;;;;4733429;30;20257;-79
2021/03/09 06:34:36;;;;;;;15.87;11.80;;;;;;;;;;4728954;30;20228;-80
2021/03/09 06:48:36;;;;;;;14.27;11.77;;;;;;;;;;4696671;30;20251;-77
2021/03/09 07:04:54;;;;;;;15.13;11.63;;;;;;;;;;4739030;30;20244;-79
2021/03/09 07:08:48;;;;;;;17.07;11.83;;;;;;;;;;4750938;30;20610;-78
2021/03/09 07:11:16;;;;;;;16.53;12.03;;;;;;;;;;4760480;30;20228;-80
2021/03/09 07:13:44;;;;;;;16.07;11.63;;;;;;;;;;4759154;30;20248;-80
2021/03/09 07:16:14;;;;;;;15.20;10.40;;;;;;;;;;4767463;29;20259;-80
2021/03/09 07:18:46;;;;;;;16.80;12.23;;;;;;;;;;4764693;29;20229;-80
2021/03/09 07:21:15;;;;;;;14.93;12.00;;;;;;;;;;4732356;30;20230;-79
2021/03/09 07:23:43;;;;;;;17.07;12.43;;;;;;;;;;4735002;30;20249;-78
2021/03/09 07:26:14;;;;;;;17.07;11.57;;;;;;;;;;4749252;30;20269;-80
2021/03/09 07:28:42;;;;;;;16.50;11.33;;;;;;;;;;4747251;30;20256;-79
2021/03/09 07:31:10;;;;;;;16.97;11.90;;;;;;;;;;4749097;30;20256;-80
2021/03/09 07:33:40;;;;;;;14.80;11.73;;;;;;;;;;4743996;30;20237;-80
2021/03/09 07:36:09;;;;;;;16.73;11.27;;;;;;;;;;4752539;30;20274;-78
2021/03/09 07:38:39;;;;;;;18.60;11.73;;;;;;;;;;4751401;30;20221;-80
2021/03/09 07:41:09;;;;;;;17.17;11.30;;;;;;;;;;4771288;29;20214;-79
2021/03/09 07:43:38;;;;;;;15.60;11.07;;;;;;;;;;4754941;30;20603;-78
2021/03/09 07:46:07;;;;;;;16.87;12.10;;;;;;;;;;4736977;30;20249;-78
2021/03/09 07:48:34;;;;;;;15.80;11.70;;;;;;;;;;4745719;30;20243;-79
2021/03/09 07:51:04;;;;;;;14.93;12.10;;;;;;;;;;4741149;30;20411;-78
2021/03/09 07:53:31;;;;;;;16.77;12.30;;;;;;;;;;4744588;30;20243;-78
2021/03/09 07:56:13;;;;;;;14.93;11.10;;;;;;;;;;4730939;30;20259;-78
2021/03/09 07:58:42;;;;;;;15.70;11.53;;;;;;;;;;4735508;30;20675;-79
2021/03/09 08:01:10;;;;;;;16.17;11.60;;;;;;;;;;4728166;30;20233;-78
2021/03/09 08:03:38;;;;;;;15.10;10.90;;;;;;;;;;4746960;30;20230;-78
2021/03/09 08:06:08;;;;;;;15.40;11.13;;;;;;;;;;4747719;30;20234;-78
2021/03/09 08:08:43;;;;;;;12.30;8.70;;;;;;;;;;4749860;30;20226;-78
2021/03/09 08:11:38;;;;;;;14.47;9.70;;;;;;;;;;4763036;29;20241;-78
2021/03/09 08:14:22;;;;;;;15.13;9.30;;;;;;;;;;4749972;30;20234;-78
2021/03/09 08:16:50;;;;;;;17.40;9.83;;;;;;;;;;4747436;30;20241;-78
2021/03/09 08:19:38;;;;;;;16.10;10.50;;;;;;;;;;4733987;30;20238;-78
2021/03/09 08:22:08;;;;;;;15.77;9.70;;;;;;;;;;4730638;30;20230;-78
2021/03/09 08:25:06;;;;;;;15.93;10.80;;;;;;;;;;4767719;30;20253;-79
2021/03/09 08:27:41;;;;;;;15.30;10.27;;;;;;;;;;4751666;30;20226;-79
2021/03/09 08:30:32;;;;;;;16.43;10.57;;;;;;;;;;4769741;30;20709;-78
2021/03/09 08:33:30;;;;;;;13.60;9.63;;;;;;;;;;4766514;30;20717;-79
2021/03/09 08:35:58;;;;;;;14.30;10.40;;;;;;;;;;4748880;30;20241;-80
2021/03/09 08:38:27;;;;;;;19.60;11.37;;;;;;;;;;4751216;30;20265;-78
2021/03/09 08:41:12;;;;;;;17.67;10.87;;;;;;;;;;4749278;30;20721;-80
2021/03/09 08:43:41;;;;;;;15.60;11.37;;;;;;;;;;4748684;30;20242;-82
2021/03/09 08:46:13;;;;;;;15.63;11.27;;;;;;;;;;4735732;30;20725;-79
2021/03/09 08:48:54;;;;;;;17.40;11.60;;;;;;;;;;4729882;30;20741;-79
2021/03/09 08:51:46;;;;;;;20.17;12.90;;;;;;;;;;4747855;30;20253;-78
2021/03/09 08:54:36;;;;;;;19.57;12.20;;;;;;;;;;4737109;30;20618;-78
2021/03/09 08:57:09;;;;;;;18.37;11.80;;;;;;;;;;4746765;30;20242;-78
2021/03/09 08:59:38;;;;;;;15.73;11.43;;;;;;;;;;4730804;30;20241;-78
2021/03/09 09:02:11;;;;;;;18.17;13.73;;;;;;;;;;4734122;30;20239;-79
2021/03/09 09:04:41;;;;;;;18.20;13.17;;;;;;;;;;4744360;30;20257;-79
2021/03/09 09:07:17;;;;;;;18.20;13.20;;;;;;;;;;4746445;30;20226;-78
2021/03/09 09:09:46;;;;;;;18.70;14.10;;;;;;;;;;4742531;30;20254;-78
2021/03/09 09:12:21;;;;;;;19.60;13.20;;;;;;;;;;4730452;30;20242;-78
2021/03/09 09:15:09;;;;;;;21.07;13.97;;;;;;;;;;4747924;30;20237;-79
2021/03/09 09:17:39;;;;;;;19.30;13.50;;;;;;;;;;4744739;30;20230;-79
2021/03/09 09:20:09;;;;;;;20.13;14.53;;;;;;;;;;4727847;30;20324;-79
2021/03/09 09:22:38;;;;;;;17.43;13.50;;;;;;;;;;4730153;30;20230;-79
2021/03/09 09:25:09;;;;;;;25.80;14.10;;;;;;;;;;4739882;30;20237;-79
2021/03/09 09:27:41;;;;;;;18.93;13.57;;;;;;;;;;4752791;30;20234;-80
2021/03/09 09:30:11;;;;;;;17.53;12.67;;;;;;;;;;4739379;30;20627;-78
2021/03/09 09:32:57;;;;;;;18.70;13.63;;;;;;;;;;4749566;30;20250;-80
2021/03/09 09:35:31;;;;;;;17.90;13.73;;;;;;;;;;4750715;30;20244;-79
2021/03/09 09:38:00;;;;;;;21.97;14.93;;;;;;;;;;4750378;30;20331;-79
2021/03/09 09:40:31;;;;;;;18.60;14.07;;;;;;;;;;4750933;30;20734;-79
2021/03/09 09:43:02;;;;;;;19.73;14.90;;;;;;;;;;4751046;30;20247;-78
2021/03/09 09:45:31;;;;;;;18.53;14.00;;;;;;;;;;4749831;30;20242;-79
2021/03/09 09:47:59;;;;;;;18.67;14.17;;;;;;;;;;4754917;30;20237;-82
2021/03/09 09:50:28;;;;;;;18.47;14.80;;;;;;;;;;4755463;30;20762;-79
2021/03/09 09:52:57;;;;;;;20.47;15.23;;;;;;;;;;4749961;30;20237;-81
2021/03/09 09:55:26;;;;;;;18.83;14.87;;;;;;;;;;4753236;30;20234;-82
2021/03/09 09:57:56;;;;;;;19.50;15.90;;;;;;;;;;4749610;30;20233;-79
2021/03/09 10:00:26;;;;;;;21.13;15.80;;;;;;;;;;4733433;30;20243;-81
2021/03/09 10:03:14;;;;;;;18.83;14.43;;;;;;;;;;4729918;30;20253;-81
2021/03/09 10:05:43;;;;;;;16.23;13.83;;;;;;;;;;4746994;30;20233;-81
2021/03/09 10:08:12;;;;;;;18.10;15.13;;;;;;;;;;4747104;30;20238;-78
2021/03/09 10:10:41;;;;;;;19.23;15.03;;;;;;;;;;4746098;30;20315;-84
2021/03/09 10:13:22;;;;;;;22.77;14.80;;;;;;;;;;4731539;30;20238;-82
2021/03/09 10:15:51;;;;;;;18.40;14.67;;;;;;;;;;4745587;30;20238;-82
2021/03/09 10:18:25;;;;;;;18.83;15.50;;;;;;;;;;4736369;30;20250;-78
2021/03/09 10:21:04;;;;;;;20.10;15.70;;;;;;;;;;4747363;30;20249;-79
2021/03/09 10:23:33;;;;;;;18.20;14.27;;;;;;;;;;4743690;30;20249;-86
2021/03/09 10:26:05;;;;;;;18.73;15.37;;;;;;;;;;4747020;30;20245;-81
2021/03/09 10:29:11;;;;;;;21.47;14.73;;;;;;;;;;4744405;30;20241;-82
2021/03/09 10:31:48;;;;;;;18.10;14.23;;;;;;;;;;4748025;30;20234;-80
2021/03/09 10:34:17;;;;;;;18.80;14.73;;;;;;;;;;4765584;29;20226;-84
2021/03/09 10:36:56;;;;;;;18.20;15.33;;;;;;;;;;4753432;30;20245;-78
2021/03/09 10:39:25;;;;;;;24.10;16.53;;;;;;;;;;4742720;30;20238;-79
2021/03/09 10:41:52;;;;;;;18.13;14.90;;;;;;;;;;4747473;30;20627;-78
2021/03/09 10:44:32;;;;;;;17.73;15.80;;;;;;;;;;4748592;30;20234;-81
2021/03/09 10:47:01;;;;;;;18.20;15.03;;;;;;;;;;4747772;30;20245;-79
2021/03/09 10:49:29;;;;;;;19.20;15.27;;;;;;;;;;4734293;30;20236;-78
2021/03/09 10:52:01;;;;;;;23.10;16.10;;;;;;;;;;4731336;30;20238;-78
2021/03/09 10:54:28;;;;;;;17.80;15.37;;;;;;;;;;4748156;30;20234;-79
2021/03/09 10:56:56;;;;;;;19.13;16.53;;;;;;;;;;4749706;30;20226;-85
2021/03/09 10:59:24;;;;;;;20.93;15.77;;;;;;;;;;4749700;30;20230;-79
2021/03/09 11:01:52;;;;;;;20.17;15.77;;;;;;;;;;4745543;30;20237;-80
2021/03/09 11:04:20;;;;;;;18.67;15.33;;;;;;;;;;4762698;30;20242;-79
2021/03/09 11:06:51;;;;;;;18.47;15.23;;;;;;;;;;4743751;30;20353;-81
2021/03/09 11:09:19;;;;;;;18.07;15.43;;;;;;;;;;4736291;30;20231;-78
2021/03/09 11:11:47;;;;;;;18.73;16.27;;;;;;;;;;4747030;30;20253;-79
2021/03/09 11:14:18;;;;;;;20.07;15.80;;;;;;;;;;4734909;30;20726;-79
2021/03/09 11:16:53;;;;;;;20.40;16.80;;;;;;;;;;4727903;30;20246;-78
2021/03/09 11:19:22;;;;;;;19.77;17.27;;;;;;;;;;4744331;30;20494;-78
2021/03/09 11:21:50;;;;;;;20.73;16.63;;;;;;;;;;4748912;30;20248;-79
2021/03/09 11:24:18;;;;;;;23.47;16.60;;;;;;;;;;4748943;30;20230;-79
2021/03/09 11:26:45;;;;;;;23.97;18.17;;;;;;;;;;4734539;30;20400;-82
2021/03/09 11:29:13;;;;;;;21.30;16.50;;;;;;;;;;4751523;30;20234;-78
2021/03/09 11:31:42;;;;;;;20.00;16.97;;;;;;;;;;4748036;30;20249;-83
2021/03/09 11:34:10;;;;;;;19.30;15.90;;;;;;;;;;4747942;30;20241;-84
2021/03/09 11:36:38;;;;;;;19.90;16.17;;;;;;;;;;4747294;30;20235;-80
2021/03/09 11:39:06;;;;;;;19.70;16.73;;;;;;;;;;4745019;30;20717;-84
2021/03/09 11:41:34;;;;;;;18.83;16.70;;;;;;;;;;4744049;29;20241;-81
2021/03/09 11:44:07;;;;;;;17.03;14.87;;;;;;;;;;4748061;30;20741;-79
2021/03/09 11:46:35;;;;;;;20.00;16.03;;;;;;;;;;4748645;30;20234;-80
2021/03/09 11:49:04;;;;;;;18.07;16.17;;;;;;;;;;4730291;30;20241;-79
2021/03/09 11:51:31;;;;;;;19.27;15.73;;;;;;;;;;4746423;30;20245;-79
2021/03/09 11:54:00;;;;;;;19.07;15.63;;;;;;;;;;4743222;30;20699;-79
2021/03/09 11:56:27;;;;;;;19.10;15.87;;;;;;;;;;4745015;30;20235;-79
2021/03/09 11:58:55;;;;;;;17.10;15.30;;;;;;;;;;4742755;30;20242;-80
2021/03/09 12:01:22;;;;;;;17.93;16.03;;;;;;;;;;4742303;30;20230;-84
2021/03/09 12:03:50;;;;;;;15.70;14.10;;;;;;;;;;4741300;30;20750;-79
2021/03/09 12:06:18;;;;;;;18.43;16.03;;;;;;;;;;4745654;29;20256;-79
2021/03/09 12:08:45;;;;;;;17.07;15.40;;;;;;;;;;4744749;30;20248;-79
2021/03/09 12:11:14;;;;;;;18.50;16.00;;;;;;;;;;4745016;30;20235;-81
2021/03/09 12:13:41;;;;;;;21.00;16.77;;;;;;;;;;4732316;30;20245;-79
2021/03/09 12:16:09;;;;;;;17.43;15.30;;;;;;;;;;4753598;30;20226;-86
2021/03/09 12:18:37;;;;;;;16.60;14.90;;;;;;;;;;4781996;29;20222;-88
2021/03/09 12:21:05;;;;;;;17.83;15.93;;;;;;;;;;4768076;29;20238;-85
2021/03/09 12:23:32;;;;;;;17.03;15.50;;;;;;;;;;4774997;30;20249;-85
2021/03/09 12:26:09;;;;;;;17.60;15.70;;;;;;;;;;4751228;30;20242;-78
2021/03/09 12:28:38;;;;;;;19.13;16.53;;;;;;;;;;4746964;30;20467;-79
2021/03/09 12:31:05;;;;;;;17.20;15.27;;;;;;;;;;4748729;30;20247;-82
2021/03/09 12:33:34;;;;;;;17.17;15.37;;;;;;;;;;4746843;30;20242;-79
2021/03/09 12:36:02;;;;;;;18.43;16.23;;;;;;;;;;4732950;30;20245;-79
2021/03/09 12:38:30;;;;;;;18.60;16.67;;;;;;;;;;4745843;30;20238;-79
2021/03/09 12:40:58;;;;;;;17.93;16.00;;;;;;;;;;4745603;30;20797;-81
2021/03/09 12:43:26;;;;;;;18.30;16.20;;;;;;;;;;4732168;30;20725;-84
2021/03/09 12:45:54;;;;;;;18.47;16.57;;;;;;;;;;4747929;30;20238;-81
2021/03/09 12:48:22;;;;;;;18.20;16.40;;;;;;;;;;4746838;30;20230;-79
2021/03/09 12:50:49;;;;;;;21.13;16.63;;;;;;;;;;4746410;30;20226;-82
2021/03/09 12:53:18;;;;;;;18.00;15.97;;;;;;;;;;4745143;30;20238;-81
2021/03/09 12:55:47;;;;;;;20.47;17.23;;;;;;;;;;4747622;30;20234;-79
2021/03/09 12:58:15;;;;;;;19.87;16.87;;;;;;;;;;4743538;30;20246;-79
2021/03/09 13:00:42;;;;;;;18.53;16.63;;;;;;;;;;4744762;30;20240;-79
2021/03/09 13:03:11;;;;;;;18.87;16.87;;;;;;;;;;4746412;30;20242;-82
2021/03/09 13:05:39;;;;;;;19.50;16.47;;;;;;;;;;4732328;30;20251;-78
2021/03/09 13:08:07;;;;;;;20.17;17.20;;;;;;;;;;4742640;30;20246;-81
2021/03/09 13:10:34;;;;;;;20.00;16.50;;;;;;;;;;4740309;30;20249;-81
2021/03/09 13:13:02;;;;;;;18.57;16.50;;;;;;;;;;4742397;30;20245;-82
2021/03/09 13:15:29;;;;;;;19.37;15.77;;;;;;;;;;4746494;30;20235;-82
2021/03/09 13:17:57;;;;;;;18.73;16.73;;;;;;;;;;4745332;30;20234;-80
2021/03/09 13:20:29;;;;;;;19.17;17.10;;;;;;;;;;4744032;30;20315;-80
2021/03/09 13:22:58;;;;;;;19.53;17.53;;;;;;;;;;4746531;30;20246;-83
2021/03/09 13:25:25;;;;;;;17.77;15.97;;;;;;;;;;4733207;30;20713;-82
2021/03/09 13:27:53;;;;;;;19.30;16.77;;;;;;;;;;4758132;30;20233;-88
2021/03/09 13:30:22;;;;;;;19.00;17.10;;;;;;;;;;4761703;29;20229;-87
2021/03/09 13:32:52;;;;;;;20.57;18.10;;;;;;;;;;4749776;30;20254;-82
2021/03/09 13:35:24;;;;;;;19.30;17.40;;;;;;;;;;4748408;30;20240;-79
2021/03/09 13:37:54;;;;;;;19.87;17.77;;;;;;;;;;4731661;30;20230;-80
2021/03/09 13:40:22;;;;;;;18.83;16.83;;;;;;;;;;4731202;30;20234;-81
2021/03/09 13:42:50;;;;;;;18.40;16.50;;;;;;;;;;4742912;30;20230;-79
2021/03/09 13:45:18;;;;;;;19.73;17.73;;;;;;;;;;4746182;30;20242;-82
2021/03/09 13:47:45;;;;;;;19.43;17.43;;;;;;;;;;4744105;30;20242;-83
2021/03/09 13:50:15;;;;;;;17.40;15.60;;;;;;;;;;4741106;30;20234;-82
2021/03/09 13:52:43;;;;;;;19.03;17.03;;;;;;;;;;4744432;30;20238;-79
2021/03/09 13:55:14;;;;;;;18.13;16.37;;;;;;;;;;4745775;30;20242;-79
2021/03/09 13:57:42;;;;;;;18.47;16.57;;;;;;;;;;4746366;30;20234;-82
2021/03/09 14:00:11;;;;;;;18.30;16.53;;;;;;;;;;4725731;30;20243;-86
2021/03/09 14:02:54;;;;;;;18.43;16.47;;;;;;;;;;4746960;30;20230;-82
2021/03/09 14:05:23;;;;;;;19.20;17.17;;;;;;;;;;4725631;30;20235;-81
2021/03/09 14:07:50;;;;;;;19.17;17.27;;;;;;;;;;4745224;30;20239;-81
2021/03/09 14:10:19;;;;;;;19.07;16.67;;;;;;;;;;4745346;30;20230;-81
2021/03/09 14:12:46;;;;;;;17.67;15.90;;;;;;;;;;4745695;30;20626;-80
2021/03/09 14:15:14;;;;;;;19.60;17.50;;;;;;;;;;4750748;30;20767;-81
2021/03/09 14:17:42;;;;;;;18.70;16.43;;;;;;;;;;4751980;30;20253;-83
2021/03/09 14:20:13;;;;;;;20.33;17.13;;;;;;;;;;4751400;30;20609;-81
2021/03/09 14:22:41;;;;;;;19.23;17.23;;;;;;;;;;4745313;30;20233;-82
2021/03/09 14:25:10;;;;;;;19.33;16.57;;;;;;;;;;4749084;30;20249;-80
2021/03/09 14:27:39;;;;;;;19.27;16.63;;;;;;;;;;4753389;30;20237;-81
2021/03/09 14:30:09;;;;;;;21.23;17.60;;;;;;;;;;4733323;30;20238;-80
2021/03/09 14:32:37;;;;;;;19.97;15.80;;;;;;;;;;4748716;30;20249;-80
2021/03/09 14:35:07;;;;;;;20.67;16.43;;;;;;;;;;4753866;30;20253;-80
2021/03/09 14:37:34;;;;;;;22.30;17.47;;;;;;;;;;4741306;30;20244;-82
2021/03/09 14:40:06;;;;;;;23.37;16.93;;;;;;;;;;4749242;30;20233;-81
2021/03/09 14:42:34;;;;;;;19.50;17.37;;;;;;;;;;4750483;30;20241;-80
2021/03/09 14:45:03;;;;;;;18.03;15.63;;;;;;;;;;4750714;30;20720;-79
2021/03/09 14:47:31;;;;;;;20.33;15.40;;;;;;;;;;4748384;30;20704;-81
2021/03/09 14:49:58;;;;;;;17.47;14.73;;;;;;;;;;4750733;30;20241;-84
2021/03/09 14:52:26;;;;;;;21.07;15.87;;;;;;;;;;4751335;30;20253;-80
2021/03/09 14:54:53;;;;;;;20.77;16.70;;;;;;;;;;4748472;30;20803;-79
2021/03/09 14:57:21;;;;;;;18.10;14.47;;;;;;;;;;4748684;30;20706;-81
2021/03/09 14:59:48;;;;;;;18.87;13.97;;;;;;;;;;4738011;30;20639;-86
2021/03/09 15:02:17;;;;;;;17.73;14.73;;;;;;;;;;4744442;30;20245;-83
2021/03/09 15:04:49;;;;;;;20.20;16.20;;;;;;;;;;4760003;30;20229;-84
2021/03/09 15:07:21;;;;;;;18.67;15.07;;;;;;;;;;4749148;30;20237;-79
2021/03/09 15:09:48;;;;;;;20.10;14.73;;;;;;;;;;4751399;30;20717;-80
2021/03/09 15:12:16;;;;;;;19.13;14.70;;;;;;;;;;4730756;30;20256;-80
2021/03/09 15:14:43;;;;;;;20.80;15.53;;;;;;;;;;4749786;30;20249;-81
2021/03/09 15:17:11;;;;;;;19.03;14.40;;;;;;;;;;4745267;30;20730;-83
2021/03/09 15:19:40;;;;;;;18.60;15.00;;;;;;;;;;4726645;30;20245;-79
2021/03/09 15:22:07;;;;;;;19.80;14.70;;;;;;;;;;4751288;29;20230;-83
2021/03/09 15:24:35;;;;;;;20.77;15.40;;;;;;;;;;4745015;30;20253;-79
2021/03/09 15:27:03;;;;;;;18.30;14.00;;;;;;;;;;4744107;30;20241;-79
2021/03/09 15:29:30;;;;;;;18.30;14.23;;;;;;;;;;4747461;29;20234;-79
2021/03/09 15:31:58;;;;;;;19.47;15.40;;;;;;;;;;4748103;30;20230;-81
2021/03/09 15:34:26;;;;;;;19.70;15.53;;;;;;;;;;4727754;30;20257;-81
2021/03/09 15:36:54;;;;;;;19.53;15.30;;;;;;;;;;4741241;30;20246;-80